TimeCDT,TemperatureF,Dew PointF,Humidity,Sea Level PressureIn,VisibilityMPH,Wind Direction,Wind SpeedMPH,Gust SpeedMPH,PrecipitationIn,Events,Conditions,WindDirDegrees,DateUTC
12:53 AM,66.9,66.0,97,29.92,6.0,ESE,4.6,-,N/A,,Clear,120,2013-09-09 05:53:00
1:53 AM,66.9,66.0,97,29.91,6.0,ESE,5.8,-,N/A,,Clear,110,2013-09-09 06:53:00
2:53 AM,66.9,66.0,97,29.89,6.0,SE,5.8,-,N/A,,Mostly Cloudy,130,2013-09-09 07:53:00
3:53 AM,66.9,66.9,100,29.88,5.0,SE,5.8,-,N/A,,Scattered Clouds,130,2013-09-09 08:53:00
4:53 AM,66.9,66.9,100,29.87,4.0,SSE,6.9,-,N/A,,Clear,150,2013-09-09 09:53:00
5:49 AM,66.2,66.2,100,29.87,3.0,South,6.9,-,N/A,,Partly Cloudy,170,2013-09-09 10:49:00
5:53 AM,66.9,66.9,100,29.86,3.0,South,4.6,-,N/A,,Partly Cloudy,180,2013-09-09 10:53:00
6:30 AM,66.2,66.2,100,29.87,2.5,South,5.8,-,N/A,,Mostly Cloudy,190,2013-09-09 11:30:00
6:49 AM,66.2,66.2,100,29.88,1.5,South,5.8,-,N/A,,Overcast,180,2013-09-09 11:49:00
6:53 AM,66.9,66.9,100,29.86,1.5,South,5.8,-,N/A,,Overcast,180,2013-09-09 11:53:00
7:43 AM,69.8,69.8,100,29.88,0.8,South,6.9,-,N/A,,Overcast,190,2013-09-09 12:43:00
7:53 AM,69.1,69.1,100,29.87,1.0,South,9.2,-,N/A,,Overcast,190,2013-09-09 12:53:00
8:53 AM,71.1,70.0,96,29.86,2.0,SSW,12.7,-,N/A,,Overcast,200,2013-09-09 13:53:00
9:19 AM,71.6,71.6,100,29.88,3.0,South,13.8,-,N/A,,Overcast,190,2013-09-09 14:19:00
9:39 AM,73.4,71.6,94,29.87,4.0,South,11.5,-,N/A,,Scattered Clouds,190,2013-09-09 14:39:00
9:53 AM,75.0,72.0,90,29.86,5.0,SSW,12.7,-,N/A,,Partly Cloudy,210,2013-09-09 14:53:00
10:53 AM,80.1,73.0,79,29.85,8.0,SW,5.8,-,N/A,,Clear,220,2013-09-09 15:53:00
11:53 AM,84.0,73.0,69,29.84,10.0,SW,6.9,-,N/A,,Clear,220,2013-09-09 16:53:00
12:53 PM,87.1,73.0,63,29.83,10.0,SSE,8.1,-,N/A,,Clear,160,2013-09-09 17:53:00
1:53 PM,91.0,73.0,55,29.81,10.0,South,10.4,-,N/A,,Clear,190,2013-09-09 18:53:00
2:53 PM,93.0,71.1,49,29.79,10.0,South,8.1,-,N/A,,Clear,190,2013-09-09 19:53:00
3:53 PM,93.9,68.0,43,29.78,10.0,SW,13.8,-,N/A,,Clear,220,2013-09-09 20:53:00
4:53 PM,93.0,66.0,41,29.78,10.0,SW,15.0,25.3,N/A,,Clear,220,2013-09-09 21:53:00
5:53 PM,89.1,68.0,50,29.79,10.0,SSW,9.2,-,N/A,,Clear,210,2013-09-09 22:53:00
6:53 PM,84.0,70.0,63,29.80,10.0,SSW,8.1,-,N/A,,Clear,200,2013-09-09 23:53:00
7:53 PM,80.1,69.1,69,29.81,10.0,SSW,6.9,-,N/A,,Clear,200,2013-09-10 00:53:00
8:53 PM,78.1,68.0,71,29.82,10.0,SSW,8.1,-,N/A,,Clear,200,2013-09-10 01:53:00
9:53 PM,77.0,66.9,71,29.83,10.0,SSW,6.9,-,N/A,,Clear,210,2013-09-10 02:53:00
10:53 PM,73.9,66.0,76,29.85,10.0,SW,8.1,-,N/A,,Clear,220,2013-09-10 03:53:00
11:53 PM,73.9,64.9,73,29.86,10.0,SW,8.1,-,N/A,,Clear,220,2013-09-10 04:53:00